createdAt,value
2023-05-09T00:04:41.172Z,6.18
2023-05-09T00:09:44.838Z,5.80
2023-05-09T00:14:47.083Z,7.32
2023-05-09T00:19:49.284Z,7.13
2023-05-09T00:24:53.647Z,7.50
2023-05-09T00:29:55.771Z,6.82
2023-05-09T00:34:58.202Z,5.95
2023-05-09T00:40:01.816Z,7.20
2023-05-09T00:45:04.418Z,6.45
2023-05-09T00:50:08.706Z,6.07
2023-05-09T00:55:13.459Z,6.03
2023-05-09T01:00:17.317Z,6.03
2023-05-09T01:05:20.356Z,6.43
2023-05-09T01:10:32.008Z,6.65
2023-05-09T01:15:39.827Z,7.45
2023-05-09T01:20:45.004Z,9.57
2023-05-09T01:26:02.119Z,6.55
2023-05-09T01:31:07.887Z,9.30
2023-05-09T01:36:15.262Z,6.70
2023-05-09T01:46:22.975Z,9.02
2023-05-09T01:51:26.089Z,8.63
2023-05-09T01:56:29.101Z,6.25
2023-05-09T02:01:32.883Z,6.65
2023-05-09T02:06:36.359Z,7.70
2023-05-09T02:11:38.686Z,6.38
2023-05-09T02:16:42.486Z,6.45
2023-05-09T02:21:44.782Z,6.75
2023-05-09T02:26:47.117Z,6.20
2023-05-09T02:31:51.589Z,6.97
2023-05-09T02:36:53.872Z,7.88
2023-05-09T02:41:56.062Z,7.50
2023-05-09T02:46:59.647Z,8.15
2023-05-09T02:52:01.816Z,6.70
2023-05-09T02:57:04.284Z,7.82
2023-05-09T03:02:07.898Z,6.45
2023-05-09T03:07:10.255Z,9.93
2023-05-09T03:12:12.451Z,7.72
2023-05-09T03:17:15.998Z,6.40
2023-05-09T03:22:18.143Z,7.65
2023-05-09T03:27:20.317Z,6.68
2023-05-09T03:32:24.038Z,8.82
2023-05-09T03:37:27.166Z,6.72
2023-05-09T03:42:29.784Z,6.13
2023-05-09T03:47:33.373Z,6.32
2023-05-09T03:52:35.506Z,6.03
2023-05-09T03:57:37.886Z,6.03
2023-05-09T04:02:41.780Z,6.10
2023-05-09T04:07:44.327Z,7.05
2023-05-09T04:12:46.463Z,6.55
2023-05-09T04:17:50.221Z,5.68
2023-05-09T04:22:52.387Z,5.25
2023-05-09T04:27:54.756Z,5.20
2023-05-09T04:32:58.349Z,6.63
2023-05-09T04:38:00.500Z,11.77
2023-05-09T04:43:02.617Z,5.45
2023-05-09T04:48:06.819Z,4.72
2023-05-09T04:53:09.056Z,5.93
2023-05-09T04:58:11.308Z,6.68
2023-05-09T05:03:14.808Z,5.28
2023-05-09T05:08:17.034Z,6.53
2023-05-09T05:13:19.379Z,5.72
2023-05-09T05:18:23.087Z,4.35
2023-05-09T05:23:25.360Z,4.65
2023-05-09T05:28:27.565Z,4.13
2023-05-09T05:33:31.902Z,5.80
2023-05-09T05:38:34.046Z,4.53
2023-05-09T05:43:36.285Z,5.20
2023-05-09T05:48:39.966Z,5.63
2023-05-09T05:53:42.296Z,5.78
2023-05-09T05:58:44.493Z,7.55
2023-05-09T06:03:48.852Z,5.28
2023-05-09T06:08:51.099Z,6.78
2023-05-09T06:13:53.303Z,8.77
2023-05-09T06:18:57.093Z,5.22
2023-05-09T06:24:08.424Z,4.13
2023-05-09T06:29:16.787Z,6.40
2023-05-09T06:34:20.552Z,4.72
2023-05-09T06:39:22.764Z,4.82
2023-05-09T06:44:25.098Z,4.25
2023-05-09T06:49:28.674Z,11.25
2023-05-09T06:54:30.851Z,5.70
2023-05-09T06:59:33.078Z,6.00
2023-05-09T07:04:36.696Z,7.40
2023-05-09T07:09:38.952Z,7.50
2023-05-09T07:14:41.229Z,4.80
2023-05-09T07:19:44.872Z,5.30
2023-05-09T07:24:47.240Z,7.60
2023-05-09T07:29:49.560Z,6.97
2023-05-09T07:34:56.040Z,5.85
2023-05-09T07:40:25.213Z,6.68
2023-05-09T07:45:29.902Z,6.30
2023-05-09T07:50:34.272Z,6.68
2023-05-09T07:55:36.521Z,6.07
2023-05-09T08:00:38.952Z,9.77
2023-05-09T08:05:42.765Z,9.20
2023-05-09T08:10:45.206Z,12.23
2023-05-09T08:15:47.684Z,6.68
2023-05-09T08:20:51.496Z,11.63
2023-05-09T08:25:54.510Z,7.90
2023-05-09T08:30:56.948Z,11.25
2023-05-09T08:36:00.792Z,10.13
2023-05-09T08:41:03.146Z,12.85
2023-05-09T08:46:08.681Z,7.75
2023-05-09T08:51:12.757Z,8.63
2023-05-09T08:56:15.177Z,8.88
2023-05-09T09:01:18.492Z,9.55
2023-05-09T09:06:23.382Z,8.77
2023-05-09T09:11:25.814Z,9.27
2023-05-09T09:16:33.048Z,11.45
2023-05-09T09:21:37.526Z,10.45
2023-05-09T09:26:48.499Z,9.13
2023-05-09T09:31:54.594Z,9.27
2023-05-09T09:36:58.450Z,12.93
2023-05-09T09:42:12.626Z,9.38
2023-05-09T09:47:14.913Z,9.15
2023-05-09T09:52:25.011Z,9.88
2023-05-09T09:57:34.745Z,11.40
2023-05-09T10:02:47.382Z,11.82
2023-05-09T10:07:57.064Z,12.57
2023-05-09T10:13:02.356Z,12.13
2023-05-09T10:18:05.046Z,12.77
2023-05-09T10:23:09.447Z,11.07
2023-05-09T10:28:13.442Z,13.07
2023-05-09T10:33:20.911Z,14.30
2023-05-09T10:38:25.492Z,14.75
2023-05-09T10:43:28.550Z,12.90
2023-05-09T10:48:32.556Z,11.45
2023-05-09T10:53:46.853Z,13.02
2023-05-09T10:58:49.058Z,12.13
2023-05-09T11:03:56.227Z,11.00
2023-05-09T11:09:23.288Z,10.85
2023-05-09T11:14:43.320Z,10.63
2023-05-09T11:20:03.874Z,14.18
2023-05-09T11:25:10.021Z,14.57
2023-05-09T11:30:15.054Z,13.47
2023-05-09T11:35:18.938Z,12.18
2023-05-09T11:40:23.272Z,17.48
2023-05-09T11:45:27.588Z,12.52
2023-05-09T11:50:29.955Z,13.52
2023-05-09T11:55:37.928Z,13.55
2023-05-09T12:00:45.071Z,13.93
2023-05-09T12:05:49.186Z,15.57
2023-05-09T12:10:52.781Z,16.52
2023-05-09T12:16:01.620Z,16.42
2023-05-09T12:21:04.725Z,17.15
2023-05-09T12:26:08.483Z,18.70
2023-05-09T12:31:11.319Z,20.67
2023-05-09T12:36:13.943Z,18.25
2023-05-09T12:41:30.846Z,19.98
2023-05-09T12:46:37.806Z,20.13
2023-05-09T12:51:49.073Z,19.75
2023-05-09T12:56:54.017Z,20.00
2023-05-09T13:01:58.052Z,19.80
2023-05-09T13:07:00.592Z,20.27
2023-05-09T13:12:04.586Z,20.25
2023-05-09T13:17:06.946Z,19.17
2023-05-09T13:22:11.037Z,17.75
2023-05-09T13:27:15.798Z,16.88
2023-05-09T13:32:18.011Z,16.90
2023-05-09T13:37:20.430Z,18.73
2023-05-09T13:42:24.152Z,16.98
2023-05-09T13:47:26.653Z,18.75
2023-05-09T13:52:28.932Z,19.40
2023-05-09T13:57:32.560Z,19.35
2023-05-09T14:02:34.722Z,19.60
2023-05-09T14:07:36.983Z,19.85
2023-05-09T14:12:41.717Z,18.33
2023-05-09T14:17:44.257Z,17.20
2023-05-09T14:22:46.540Z,18.45
2023-05-09T14:27:50.281Z,16.30
2023-05-09T14:32:52.655Z,16.58
2023-05-09T14:37:54.907Z,13.95
2023-05-09T14:42:58.874Z,17.75
2023-05-09T14:48:01.524Z,16.85
2023-05-09T14:53:03.868Z,17.38
2023-05-09T14:58:07.524Z,14.18
2023-05-09T15:03:09.790Z,15.93
2023-05-09T15:08:11.971Z,3.65
2023-05-09T15:13:15.508Z,4.05
2023-05-09T15:18:17.795Z,3.78
2023-05-09T15:23:20.078Z,1.95
2023-05-09T15:28:23.735Z,2.17
2023-05-09T15:33:26.324Z,1.88
2023-05-09T15:38:28.510Z,2.05
2023-05-09T15:43:32.311Z,2.15
2023-05-09T15:48:34.779Z,2.78
2023-05-09T15:53:37.106Z,3.42
2023-05-09T15:58:41.317Z,4.35
2023-05-09T16:03:43.665Z,5.22
2023-05-09T16:08:45.996Z,5.07
2023-05-09T16:13:49.654Z,5.43
2023-05-09T16:18:51.802Z,6.05
2023-05-09T16:23:53.963Z,8.57
2023-05-09T16:28:57.674Z,7.78
2023-05-09T16:33:59.831Z,10.48
2023-05-09T16:39:02.102Z,9.32
2023-05-09T16:44:05.868Z,8.05
2023-05-09T16:49:07.995Z,9.82
2023-05-09T16:54:10.172Z,9.88
2023-05-09T16:59:13.736Z,9.88
2023-05-09T17:04:15.935Z,9.98
2023-05-09T17:09:19.120Z,9.63
2023-05-09T17:14:22.901Z,10.90
2023-05-09T17:19:25.090Z,22.00
2023-05-09T17:24:27.347Z,19.60
2023-05-09T17:29:30.928Z,17.42
2023-05-09T17:34:33.103Z,16.88
2023-05-09T17:39:38.072Z,17.88
2023-05-09T17:44:43.692Z,16.42
2023-05-09T17:49:46.602Z,15.90
2023-05-09T17:54:48.844Z,16.48
2023-05-09T17:59:52.729Z,16.67
2023-05-09T18:04:54.950Z,15.90
2023-05-09T18:09:57.162Z,14.75
2023-05-09T18:15:00.865Z,15.27
2023-05-09T18:20:08.420Z,15.45
2023-05-09T18:25:10.885Z,18.45
2023-05-09T18:30:15.087Z,17.77
2023-05-09T18:35:17.500Z,17.55
2023-05-09T18:40:19.831Z,15.65
2023-05-09T18:45:23.532Z,15.10
2023-05-09T18:50:25.701Z,13.90
2023-05-09T18:55:27.887Z,18.73
2023-05-09T19:00:31.580Z,16.80
2023-05-09T19:05:34.085Z,22.33
2023-05-09T19:10:36.209Z,18.75
2023-05-09T19:15:39.922Z,19.33
2023-05-09T19:20:42.068Z,25.08
2023-05-09T19:25:50.447Z,24.33
2023-05-09T19:30:55.278Z,23.10
2023-05-09T19:35:57.473Z,21.80
2023-05-09T19:41:00.564Z,20.25
2023-05-09T19:46:17.852Z,17.58
2023-05-09T19:51:20.053Z,18.63
2023-05-09T19:56:26.375Z,17.58
2023-05-09T20:01:30.238Z,20.03
2023-05-09T20:06:32.509Z,17.98
2023-05-09T20:11:34.693Z,18.80
2023-05-09T20:16:38.444Z,19.85
2023-05-09T20:21:41.595Z,15.65
2023-05-09T20:26:47.703Z,17.45
2023-05-09T20:31:52.821Z,15.77
2023-05-09T20:36:55.066Z,18.63
2023-05-09T20:41:58.114Z,19.80
2023-05-09T20:47:01.831Z,21.45
2023-05-09T20:52:13.847Z,21.02
2023-05-09T20:57:18.462Z,20.17
2023-05-09T21:02:22.189Z,19.50
2023-05-09T21:07:24.461Z,21.38
2023-05-09T21:12:26.629Z,20.38
2023-05-09T21:17:30.200Z,16.13
2023-05-09T21:22:32.327Z,16.92
2023-05-09T21:27:34.450Z,16.27
2023-05-09T21:32:38.121Z,15.18
2023-05-09T21:37:40.434Z,15.63
2023-05-09T21:42:43.437Z,13.93
2023-05-09T21:47:49.999Z,12.93
2023-05-09T21:52:52.230Z,12.27
2023-05-09T21:57:54.442Z,16.52
2023-05-09T22:02:58.836Z,13.75
2023-05-09T22:08:01.231Z,12.57
2023-05-09T22:13:03.359Z,13.35
2023-05-09T22:18:07.208Z,11.00
2023-05-09T22:23:09.458Z,11.98
2023-05-09T22:28:11.653Z,12.60
2023-05-09T22:33:15.341Z,10.23
2023-05-09T22:38:17.560Z,7.47
2023-05-09T22:43:19.746Z,6.63
2023-05-09T22:48:23.271Z,6.05
2023-05-09T22:53:25.407Z,6.47
2023-05-09T22:58:27.637Z,6.63
2023-05-09T23:03:31.214Z,9.43
2023-05-09T23:08:39.648Z,8.07
2023-05-09T23:13:41.933Z,9.20
2023-05-09T23:18:45.601Z,9.80
2023-05-09T23:23:47.845Z,10.52
2023-05-09T23:28:50.003Z,13.50
2023-05-09T23:33:55.104Z,11.38
2023-05-09T23:44:30.112Z,14.05
2023-05-09T23:55:33.719Z,12.20
